createdAt,value
2023-02-06T00:00:21.203Z,972.53
2023-02-06T00:01:21.180Z,972.55
2023-02-06T00:02:21.260Z,972.47
2023-02-06T00:03:21.135Z,972.47
2023-02-06T00:04:21.112Z,972.5
2023-02-06T00:05:21.130Z,972.47
2023-02-06T00:06:21.098Z,972.45
2023-02-06T00:07:21.044Z,972.53
2023-02-06T00:08:21.024Z,972.51
2023-02-06T00:09:21.003Z,972.49
2023-02-06T00:10:20.981Z,972.47
2023-02-06T00:11:20.958Z,972.41
2023-02-06T00:12:20.947Z,972.43
2023-02-06T00:13:20.914Z,972.42
2023-02-06T00:14:20.893Z,972.5
2023-02-06T00:15:20.867Z,972.51
2023-02-06T00:16:20.939Z,972.47
2023-02-06T00:17:20.826Z,972.5
2023-02-06T00:18:20.803Z,972.47
2023-02-06T00:19:20.782Z,972.5
2023-02-06T00:20:20.760Z,972.46
2023-02-06T00:21:20.740Z,972.49
2023-02-06T00:22:20.744Z,972.52
2023-02-06T00:23:20.696Z,972.57
2023-02-06T00:24:20.673Z,972.54
2023-02-06T00:25:20.651Z,972.48
2023-02-06T00:26:20.631Z,972.42
2023-02-06T00:27:20.607Z,972.37
2023-02-06T00:28:20.649Z,972.36
2023-02-06T00:29:20.568Z,972.36
2023-02-06T00:30:20.577Z,972.37
2023-02-06T00:31:20.567Z,972.32
2023-02-06T00:32:20.544Z,972.3
2023-02-06T00:33:21.276Z,972.28
2023-02-06T00:34:20.466Z,972.28
2023-02-06T00:35:20.447Z,972.23
2023-02-06T00:36:20.422Z,972.24
2023-02-06T00:37:20.428Z,972.17
2023-02-06T00:38:20.400Z,972.23
2023-02-06T00:39:20.351Z,972.24
2023-02-06T00:40:20.327Z,972.31
2023-02-06T00:41:20.312Z,972.35
2023-02-06T00:42:20.292Z,972.32
2023-02-06T00:43:20.266Z,972.28
2023-02-06T00:44:20.242Z,972.31
2023-02-06T00:45:20.221Z,972.35
2023-02-06T00:46:20.255Z,972.34
2023-02-06T00:47:20.180Z,972.33
2023-02-06T00:48:20.155Z,972.33
2023-02-06T00:49:20.137Z,972.3
2023-02-06T00:50:20.113Z,972.3
2023-02-06T00:51:20.107Z,972.32
2023-02-06T00:52:20.078Z,972.36
2023-02-06T00:53:20.055Z,972.3
2023-02-06T00:54:20.060Z,972.33
2023-02-06T00:55:20.010Z,972.41
2023-02-06T00:56:19.987Z,972.4
2023-02-06T00:57:19.965Z,972.43
2023-02-06T00:58:19.950Z,972.49
2023-02-06T00:59:19.923Z,972.49
2023-02-06T01:00:19.910Z,972.55
2023-02-06T01:01:19.918Z,972.53
2023-02-06T01:02:19.859Z,972.56
2023-02-06T01:03:19.835Z,972.55
2023-02-06T01:04:19.815Z,972.55
2023-02-06T01:05:19.804Z,972.52
2023-02-06T01:06:19.771Z,972.49
2023-02-06T01:07:19.746Z,972.47
2023-02-06T01:08:19.727Z,972.48
2023-02-06T01:09:19.704Z,972.52
2023-02-06T01:10:19.715Z,972.5
2023-02-06T01:11:19.662Z,972.53
2023-02-06T01:12:19.638Z,972.46
2023-02-06T01:13:19.627Z,972.49
2023-02-06T01:14:19.597Z,972.46
2023-02-06T01:15:19.574Z,972.55
2023-02-06T01:16:19.593Z,972.53
2023-02-06T01:17:19.532Z,972.52
2023-02-06T01:18:19.521Z,972.58
2023-02-06T01:19:19.498Z,972.61
2023-02-06T01:20:19.466Z,972.61
2023-02-06T01:21:19.447Z,972.61
2023-02-06T01:22:19.425Z,972.6
2023-02-06T01:23:19.405Z,972.59
2023-02-06T01:24:19.382Z,972.59
2023-02-06T01:25:19.365Z,972.61
2023-02-06T01:26:19.363Z,972.61
2023-02-06T01:27:19.318Z,972.62
2023-02-06T01:28:19.297Z,972.57
2023-02-06T01:29:19.273Z,972.54
2023-02-06T01:30:19.251Z,972.52
2023-02-06T01:31:19.288Z,972.49
2023-02-06T01:32:19.212Z,972.54
2023-02-06T01:33:19.187Z,972.52
2023-02-06T01:34:19.166Z,972.57
2023-02-06T01:35:19.148Z,972.57
2023-02-06T01:36:19.122Z,972.51
2023-02-06T01:37:19.103Z,972.54
2023-02-06T01:38:19.081Z,972.56
2023-02-06T01:39:19.058Z,972.57
2023-02-06T01:40:19.039Z,972.6
2023-02-06T01:41:19.024Z,972.61
2023-02-06T01:42:19.021Z,972.65
2023-02-06T01:43:18.976Z,972.64
2023-02-06T01:44:18.952Z,972.64
2023-02-06T01:45:18.935Z,972.68
2023-02-06T01:46:18.941Z,972.64
2023-02-06T01:47:18.895Z,972.64
2023-02-06T01:48:18.868Z,972.58
2023-02-06T01:49:18.846Z,972.55
2023-02-06T01:50:18.824Z,972.59
2023-02-06T01:51:18.807Z,972.58
2023-02-06T01:52:18.782Z,972.61
2023-02-06T01:53:18.762Z,972.65
2023-02-06T01:54:18.739Z,972.65
2023-02-06T01:55:18.720Z,972.64
2023-02-06T01:56:18.701Z,972.66
2023-02-06T01:57:18.677Z,972.68
2023-02-06T01:58:18.682Z,972.67
2023-02-06T01:59:18.633Z,972.62
2023-02-06T02:00:18.613Z,972.63
2023-02-06T02:01:18.591Z,972.6
2023-02-06T02:02:18.662Z,972.57
2023-02-06T02:03:18.553Z,972.56
2023-02-06T02:04:18.528Z,972.54
2023-02-06T02:05:18.506Z,972.56
2023-02-06T02:06:18.484Z,972.51
2023-02-06T02:07:18.481Z,972.53
2023-02-06T02:08:18.449Z,972.51
2023-02-06T02:09:18.420Z,972.47
2023-02-06T02:10:18.401Z,972.45
2023-02-06T02:11:18.379Z,972.42
2023-02-06T02:12:18.361Z,972.39
2023-02-06T02:13:18.439Z,972.4
2023-02-06T02:14:18.360Z,972.42
2023-02-06T02:15:18.295Z,972.43
2023-02-06T02:16:18.289Z,972.43
2023-02-06T02:17:18.253Z,972.46
2023-02-06T02:18:18.241Z,972.47
2023-02-06T02:19:18.211Z,972.51
2023-02-06T02:20:18.192Z,972.49
2023-02-06T02:21:18.171Z,972.49
2023-02-06T02:22:18.148Z,972.5
2023-02-06T02:23:18.131Z,972.47
2023-02-06T02:24:18.108Z,972.48
2023-02-06T02:25:18.088Z,972.43
2023-02-06T02:26:18.065Z,972.39
2023-02-06T02:27:18.044Z,972.35
2023-02-06T02:28:18.133Z,972.42
2023-02-06T02:29:18.001Z,972.44
2023-02-06T02:30:18.031Z,972.42
2023-02-06T02:31:17.995Z,972.43
2023-02-06T02:32:17.940Z,972.46
2023-02-06T02:33:17.921Z,972.5
2023-02-06T02:34:17.895Z,972.53
2023-02-06T02:35:17.875Z,972.49
2023-02-06T02:36:17.857Z,972.5
2023-02-06T02:37:17.831Z,972.49
2023-02-06T02:38:17.815Z,972.46
2023-02-06T02:39:17.793Z,972.42
2023-02-06T02:40:17.772Z,972.44
2023-02-06T02:41:17.748Z,972.42
2023-02-06T02:42:17.727Z,972.39
2023-02-06T02:43:17.718Z,972.4
2023-02-06T02:44:17.685Z,972.34
2023-02-06T02:45:17.661Z,972.23
2023-02-06T02:46:17.669Z,972.21
2023-02-06T02:47:17.618Z,972.19
2023-02-06T02:48:17.596Z,972.12
2023-02-06T02:49:17.576Z,972.09
2023-02-06T02:50:17.561Z,972.04
2023-02-06T02:51:17.532Z,971.99
2023-02-06T02:52:17.510Z,972.01
2023-02-06T02:53:17.493Z,971.97
2023-02-06T02:54:17.467Z,972.01
2023-02-06T02:55:17.450Z,971.98
2023-02-06T02:56:17.424Z,972.03
2023-02-06T02:57:17.410Z,971.99
2023-02-06T02:58:17.384Z,972.01
2023-02-06T02:59:17.369Z,971.98
2023-02-06T03:00:17.338Z,971.91
2023-02-06T03:01:17.392Z,971.89
2023-02-06T03:02:17.348Z,971.89
2023-02-06T03:03:17.277Z,971.9
2023-02-06T03:04:17.252Z,971.95
2023-02-06T03:05:17.233Z,971.91
2023-02-06T03:06:17.220Z,971.92
2023-02-06T03:07:17.203Z,971.98
2023-02-06T03:08:17.171Z,971.96
2023-02-06T03:09:17.148Z,971.99
2023-02-06T03:10:17.127Z,971.97
2023-02-06T03:11:17.107Z,971.92
2023-02-06T03:12:17.088Z,971.93
2023-02-06T03:13:17.063Z,971.88
2023-02-06T03:14:18.073Z,971.84
2023-02-06T03:15:18.595Z,971.81
2023-02-06T03:16:18.586Z,971.84
2023-02-06T03:17:18.553Z,971.81
2023-02-06T03:18:18.563Z,971.85
2023-02-06T03:19:18.506Z,971.84
2023-02-06T03:20:18.493Z,971.82
2023-02-06T03:21:18.467Z,971.88
2023-02-06T03:22:18.444Z,971.9
2023-02-06T03:23:18.422Z,971.89
2023-02-06T03:24:18.400Z,971.89
2023-02-06T03:25:18.380Z,971.9
2023-02-06T03:26:18.362Z,971.91
2023-02-06T03:27:18.338Z,971.89
2023-02-06T03:28:18.340Z,971.97
2023-02-06T03:29:18.296Z,971.89
2023-02-06T03:30:18.275Z,971.86
2023-02-06T03:31:18.291Z,971.84
2023-02-06T03:32:18.229Z,971.77
2023-02-06T03:50:03.497Z,971.67
2023-02-06T03:51:03.446Z,971.68
2023-02-06T03:52:03.418Z,971.72
2023-02-06T03:53:03.412Z,971.72
2023-02-06T03:54:03.386Z,971.69
2023-02-06T03:55:03.366Z,971.69
2023-02-06T03:56:03.335Z,971.76
2023-02-06T03:57:03.311Z,971.79
2023-02-06T03:58:03.297Z,971.8
2023-02-06T03:59:03.269Z,971.86
2023-02-06T04:00:03.243Z,971.94
2023-02-06T04:01:03.279Z,971.98
2023-02-06T04:02:03.217Z,971.98
2023-02-06T04:03:03.181Z,972.09
2023-02-06T04:04:03.157Z,972.02
2023-02-06T04:05:03.136Z,972.07
2023-02-06T04:06:03.150Z,972.11
2023-02-06T04:07:03.096Z,972.12
2023-02-06T04:08:03.075Z,972.19
2023-02-06T04:09:03.050Z,972.18
2023-02-06T04:10:03.027Z,972.22
2023-02-06T04:11:03.008Z,972.26
2023-02-06T04:12:02.985Z,972.3
2023-02-06T04:13:02.971Z,972.27
2023-02-06T04:14:02.943Z,972.3
2023-02-06T04:15:02.920Z,972.3
2023-02-06T04:16:02.905Z,972.37
2023-02-06T04:17:02.877Z,972.35
2023-02-06T04:18:03.918Z,972.38
2023-02-06T04:19:02.834Z,972.38
2023-02-06T04:20:02.811Z,972.32
2023-02-06T04:21:02.794Z,972.27
2023-02-06T04:22:02.794Z,972.27
2023-02-06T04:23:02.755Z,972.19
2023-02-06T04:24:02.729Z,972.15
2023-02-06T04:25:02.709Z,972.09
2023-02-06T04:26:02.691Z,972.13
2023-02-06T04:27:02.663Z,972.11
2023-02-06T04:28:02.739Z,972.11
2023-02-06T04:29:02.621Z,972.1
2023-02-06T04:30:03.510Z,972.12
2023-02-06T04:31:03.642Z,972.09
2023-02-06T04:32:03.466Z,972.13
2023-02-06T04:33:03.451Z,972.09
2023-02-06T04:34:03.422Z,972.07
2023-02-06T04:35:03.402Z,972.08
2023-02-06T04:36:03.384Z,972.03
2023-02-06T04:37:03.361Z,972.02
2023-02-06T04:38:03.366Z,971.99
2023-02-06T04:39:03.314Z,972.02
2023-02-06T04:40:03.311Z,971.97
2023-02-06T04:41:03.276Z,971.96
2023-02-06T04:42:03.252Z,971.98
2023-02-06T04:43:03.230Z,972.02
2023-02-06T04:44:03.228Z,971.99
2023-02-06T04:45:03.186Z,971.96
2023-02-06T04:46:03.195Z,972
2023-02-06T04:47:03.147Z,971.94
2023-02-06T04:48:03.129Z,971.92
2023-02-06T04:49:03.103Z,971.89
2023-02-06T04:50:03.082Z,971.89
2023-02-06T04:51:03.069Z,971.9
2023-02-06T04:52:03.040Z,971.91
2023-02-06T04:53:03.016Z,971.91
2023-02-06T04:54:03.022Z,971.9
2023-02-06T04:55:02.976Z,971.84
2023-02-06T04:56:02.963Z,971.88
2023-02-06T04:57:02.937Z,971.84
2023-02-06T04:58:02.918Z,971.92
2023-02-06T04:59:02.904Z,971.93
2023-02-06T05:00:02.871Z,971.97
2023-02-06T05:01:02.852Z,972.02
2023-02-06T05:02:02.830Z,972.07
2023-02-06T05:03:02.804Z,972.12
2023-02-06T05:04:02.789Z,972.17
2023-02-06T05:05:02.765Z,972.18
2023-02-06T05:06:02.739Z,972.13
2023-02-06T05:07:05.206Z,972.09
2023-02-06T05:08:02.698Z,972.13
2023-02-06T05:09:02.672Z,972.15
2023-02-06T05:10:02.702Z,972.2
2023-02-06T05:11:02.628Z,972.25
2023-02-06T05:12:03.257Z,972.35
2023-02-06T05:13:03.231Z,972.35
2023-02-06T05:14:04.043Z,972.4
2023-02-06T05:15:04.016Z,972.45
2023-02-06T05:16:04.026Z,972.47
2023-02-06T05:17:03.978Z,972.48
2023-02-06T05:18:03.950Z,972.47
2023-02-06T05:19:03.930Z,972.48
2023-02-06T05:20:03.915Z,972.47
2023-02-06T05:21:03.885Z,972.41
2023-02-06T05:22:03.872Z,972.43
2023-02-06T05:23:03.850Z,972.39
2023-02-06T05:24:03.830Z,972.43
2023-02-06T05:25:03.799Z,972.44
2023-02-06T05:26:03.926Z,972.44
2023-02-06T05:27:03.759Z,972.44
2023-02-06T05:28:03.785Z,972.46
2023-02-06T05:29:03.714Z,972.43
2023-02-06T05:30:03.705Z,972.42
2023-02-06T05:31:03.811Z,972.35
2023-02-06T05:32:03.656Z,972.32
2023-02-06T05:33:03.633Z,972.35
2023-02-06T05:34:03.609Z,972.28
2023-02-06T05:35:03.598Z,972.25
2023-02-06T05:36:03.566Z,972.28
2023-02-06T05:37:03.547Z,972.26
2023-02-06T05:38:03.531Z,972.32
2023-02-06T05:39:03.506Z,972.27
2023-02-06T05:40:03.481Z,972.29
2023-02-06T05:41:03.463Z,972.29
2023-02-06T05:42:03.518Z,972.2
2023-02-06T05:43:03.422Z,972.24
2023-02-06T05:44:03.409Z,972.17
2023-02-06T05:45:03.385Z,972.16
2023-02-06T05:46:03.377Z,972.15
2023-02-06T05:47:03.339Z,972.12
2023-02-06T05:48:03.316Z,972.06
2023-02-06T05:49:03.294Z,972.17
2023-02-06T05:50:03.273Z,972.19
2023-02-06T05:51:03.251Z,972.15
2023-02-06T05:52:03.230Z,972.13
2023-02-06T05:53:03.212Z,972.11
2023-02-06T05:54:03.187Z,972.06
2023-02-06T05:55:03.169Z,972.02
2023-02-06T05:56:03.146Z,972.07
2023-02-06T05:57:03.129Z,972.12
2023-02-06T05:58:04.975Z,972.11
2023-02-06T05:59:03.089Z,972.14
2023-02-06T06:00:03.061Z,972.11
2023-02-06T06:01:03.044Z,972.07
2023-02-06T06:02:03.026Z,972.08
2023-02-06T06:03:03.005Z,972.04
2023-02-06T06:04:03.038Z,972.04
2023-02-06T06:05:03.007Z,972
2023-02-06T06:06:02.936Z,972.03
2023-02-06T06:07:02.917Z,972.05
2023-02-06T06:08:02.898Z,972.06
2023-02-06T06:09:02.881Z,972.05
2023-02-06T06:10:02.853Z,972.03
2023-02-06T06:11:02.837Z,972.09
2023-02-06T06:12:02.812Z,972.06
2023-02-06T06:13:02.793Z,972.07
2023-02-06T06:14:02.800Z,972.1
2023-02-06T06:15:02.748Z,972.1
2023-02-06T06:16:02.780Z,972.08
2023-02-06T06:17:02.709Z,972.01
2023-02-06T06:18:02.686Z,972.03
2023-02-06T06:19:02.680Z,971.98
2023-02-06T06:20:02.641Z,971.95
2023-02-06T06:21:02.983Z,971.95
2023-02-06T06:22:02.960Z,971.96
2023-02-06T06:23:02.938Z,971.9
2023-02-06T06:24:02.917Z,971.83
2023-02-06T06:25:02.897Z,971.8
2023-02-06T06:26:02.873Z,971.82
2023-02-06T06:27:02.852Z,971.8
2023-02-06T06:28:02.906Z,971.81
2023-02-06T06:29:02.815Z,971.8
2023-02-06T06:30:02.820Z,971.8
2023-02-06T06:31:02.873Z,971.82
2023-02-06T06:32:02.753Z,971.79
2023-02-06T06:33:02.725Z,971.78
2023-02-06T06:34:02.708Z,971.78
2023-02-06T06:35:02.702Z,971.77
2023-02-06T06:36:02.673Z,971.78
2023-02-06T06:37:02.664Z,971.72
2023-02-06T06:38:02.623Z,971.69
2023-02-06T06:39:02.600Z,971.69
2023-02-06T06:40:02.645Z,971.65
2023-02-06T06:41:02.556Z,971.71
2023-02-06T06:42:02.542Z,971.73
2023-02-06T06:43:02.530Z,971.81
2023-02-06T06:44:02.513Z,971.79
2023-02-06T06:45:02.511Z,971.75
2023-02-06T06:46:02.544Z,971.75
2023-02-06T06:47:02.438Z,971.71
2023-02-06T06:48:02.411Z,971.72
2023-02-06T06:49:02.393Z,971.74
2023-02-06T06:50:02.372Z,971.78
2023-02-06T06:51:02.346Z,971.77
2023-02-06T06:52:02.328Z,971.76
2023-02-06T06:53:02.307Z,971.77
2023-02-06T06:54:02.294Z,971.73
2023-02-06T06:55:02.263Z,971.74
2023-02-06T06:56:02.245Z,971.72
2023-02-06T06:57:02.222Z,971.74
2023-02-06T06:58:02.207Z,971.67
2023-02-06T06:59:02.179Z,971.72
2023-02-06T07:00:02.162Z,971.75
2023-02-06T07:01:02.186Z,971.79
2023-02-06T07:02:02.173Z,971.75
2023-02-06T07:03:02.159Z,971.73
2023-02-06T07:04:02.077Z,971.73
2023-02-06T07:05:02.057Z,971.76
2023-02-06T07:06:02.044Z,971.8
2023-02-06T07:07:02.154Z,971.8
2023-02-06T07:08:01.995Z,971.82
2023-02-06T07:09:01.975Z,971.82
2023-02-06T07:10:01.961Z,971.84
2023-02-06T07:11:01.931Z,971.87
2023-02-06T07:12:01.912Z,971.86
2023-02-06T07:13:01.891Z,971.87
2023-02-06T07:14:01.869Z,971.88
2023-02-06T07:15:01.850Z,971.87
2023-02-06T07:16:01.826Z,971.88
2023-02-06T07:17:01.883Z,971.85
2023-02-06T07:18:01.817Z,971.87
2023-02-06T07:19:01.766Z,971.86
2023-02-06T07:20:01.780Z,971.88
2023-02-06T07:21:01.728Z,971.85
2023-02-06T07:22:01.703Z,971.89
2023-02-06T07:23:01.682Z,971.93
2023-02-06T07:24:01.662Z,971.89
2023-02-06T07:25:02.664Z,971.9
2023-02-06T07:26:02.642Z,971.89
2023-02-06T07:27:02.627Z,971.88
2023-02-06T07:28:02.643Z,971.84
2023-02-06T07:29:02.581Z,971.84
2023-02-06T07:30:03.572Z,971.82
2023-02-06T07:31:02.566Z,971.91
2023-02-06T07:32:02.518Z,971.91
2023-02-06T07:33:02.498Z,971.93
2023-02-06T07:34:02.665Z,971.91
2023-02-06T07:35:02.456Z,971.93
2023-02-06T07:36:03.952Z,971.96
2023-02-06T07:37:02.414Z,972
2023-02-06T07:38:02.398Z,972
2023-02-06T07:39:02.374Z,972.07
2023-02-06T07:40:02.350Z,972.05
2023-02-06T07:41:02.333Z,972.1
2023-02-06T07:42:02.312Z,972.02
2023-02-06T07:43:02.293Z,972.04
2023-02-06T07:44:02.271Z,972.01
2023-02-06T07:45:02.250Z,972.01
2023-02-06T07:46:02.306Z,971.95
2023-02-06T07:47:02.210Z,972.05
2023-02-06T07:48:02.188Z,972.02
2023-02-06T07:49:02.170Z,972.05
2023-02-06T07:50:02.197Z,972.05
2023-02-06T07:51:02.140Z,972.05
2023-02-06T07:52:02.115Z,972.03
2023-02-06T07:53:02.087Z,972.04
2023-02-06T07:54:02.061Z,972.04
2023-02-06T07:55:02.043Z,972.07
2023-02-06T07:56:02.020Z,972.01
2023-02-06T07:57:02.006Z,972.05
2023-02-06T07:58:01.978Z,972.02
2023-02-06T07:59:01.970Z,971.99
2023-02-06T08:00:01.943Z,971.94
2023-02-06T08:01:01.925Z,971.86
2023-02-06T08:02:01.904Z,971.85
2023-02-06T08:03:01.878Z,971.82
2023-02-06T08:04:01.856Z,971.8
2023-02-06T08:05:01.835Z,971.85
2023-02-06T08:06:01.913Z,971.88
2023-02-06T08:07:01.791Z,971.89
2023-02-06T08:08:01.780Z,971.91
2023-02-06T08:09:01.750Z,971.86
2023-02-06T08:10:01.734Z,971.86
2023-02-06T08:11:01.708Z,971.8
2023-02-06T08:12:01.689Z,971.83
2023-02-06T08:13:01.667Z,971.83
2023-02-06T08:14:01.648Z,971.85
2023-02-06T08:15:01.626Z,971.85
2023-02-06T08:16:01.604Z,971.85
2023-02-06T08:17:01.583Z,971.78
2023-02-06T08:18:01.563Z,971.81
2023-02-06T08:19:01.577Z,971.87
2023-02-06T08:20:01.566Z,971.84
2023-02-06T08:21:01.533Z,971.85
2023-02-06T08:22:01.537Z,971.88
2023-02-06T08:23:01.460Z,971.87
2023-02-06T08:24:01.440Z,971.87
2023-02-06T08:25:01.419Z,971.89
2023-02-06T08:26:01.398Z,971.85
2023-02-06T08:27:01.376Z,971.84
2023-02-06T08:28:01.368Z,971.8
2023-02-06T08:29:01.333Z,971.8
2023-02-06T08:30:01.316Z,971.84
2023-02-06T08:31:01.481Z,971.88
2023-02-06T08:32:01.282Z,971.84
2023-02-06T08:33:01.252Z,971.85
2023-02-06T08:34:01.233Z,971.82
2023-02-06T08:35:01.208Z,971.81
2023-02-06T08:36:01.191Z,971.78
2023-02-06T08:37:01.169Z,971.82
2023-02-06T08:38:01.175Z,971.78
2023-02-06T08:39:01.138Z,971.77
2023-02-06T08:40:01.112Z,971.75
2023-02-06T08:41:01.099Z,971.72
2023-02-06T08:42:01.066Z,971.68
2023-02-06T08:43:01.050Z,971.71
2023-02-06T08:44:01.034Z,971.69
2023-02-06T08:45:01.001Z,971.66
2023-02-06T08:46:01.024Z,971.63
2023-02-06T08:47:09.505Z,971.62
2023-02-06T08:48:00.943Z,971.58
2023-02-06T08:49:00.937Z,971.56
2023-02-06T08:50:03.202Z,971.59
2023-02-06T08:51:00.881Z,971.58
2023-02-06T08:52:00.865Z,971.55
2023-02-06T08:53:00.941Z,971.54
2023-02-06T08:54:00.852Z,971.56
2023-02-06T08:55:00.801Z,971.53
2023-02-06T08:56:00.792Z,971.54
2023-02-06T08:57:00.758Z,971.56
2023-02-06T08:58:00.739Z,971.55
2023-02-06T08:59:00.732Z,971.53
2023-02-06T09:00:00.695Z,971.58
2023-02-06T09:01:00.698Z,971.54
2023-02-06T09:02:00.670Z,971.52
2023-02-06T09:03:00.637Z,971.56
2023-02-06T09:04:00.616Z,971.52
2023-02-06T09:05:00.594Z,971.5
2023-02-06T09:06:09.309Z,971.51
2023-02-06T09:07:00.556Z,971.52
2023-02-06T09:08:00.535Z,971.51
2023-02-06T09:09:00.510Z,971.5
2023-02-06T09:10:00.550Z,971.49
2023-02-06T09:11:00.470Z,971.49
2023-02-06T09:12:00.450Z,971.48
2023-02-06T09:13:00.581Z,971.5
2023-02-06T09:14:00.406Z,971.5
2023-02-06T09:15:00.388Z,971.53
2023-02-06T09:16:00.400Z,971.49
2023-02-06T09:17:00.353Z,971.5
2023-02-06T09:18:00.328Z,971.48
2023-02-06T09:19:00.304Z,971.52
2023-02-06T09:20:00.281Z,971.51
2023-02-06T09:21:00.261Z,971.44
2023-02-06T09:22:00.239Z,971.43
2023-02-06T09:23:00.222Z,971.44
2023-02-06T09:24:00.205Z,971.44
2023-02-06T09:25:00.181Z,971.43
2023-02-06T09:26:00.178Z,971.48
2023-02-06T09:27:01.072Z,971.47
2023-02-06T09:28:00.178Z,971.49
2023-02-06T09:29:00.122Z,971.47
2023-02-06T09:30:00.090Z,971.48
2023-02-06T09:31:00.215Z,971.46
2023-02-06T09:32:00.035Z,971.46
2023-02-06T09:33:00.013Z,971.44
2023-02-06T09:33:59.991Z,971.46
2023-02-06T09:34:59.972Z,971.45
2023-02-06T09:35:59.957Z,971.46
2023-02-06T09:36:59.929Z,971.43
2023-02-06T09:37:59.905Z,971.48
2023-02-06T09:38:59.889Z,971.52
2023-02-06T09:39:59.865Z,971.46
2023-02-06T09:40:59.846Z,971.46
2023-02-06T09:41:59.846Z,971.42
2023-02-06T09:42:59.804Z,971.43
2023-02-06T09:43:59.781Z,971.39
2023-02-06T09:44:59.766Z,971.36
2023-02-06T09:45:59.763Z,971.36
2023-02-06T09:46:59.735Z,971.32
2023-02-06T09:47:59.697Z,971.35
2023-02-06T09:48:59.680Z,971.34
2023-02-06T09:49:59.665Z,971.35
2023-02-06T09:50:59.637Z,971.37
2023-02-06T09:51:59.617Z,971.35
2023-02-06T09:52:59.612Z,971.28
2023-02-06T09:53:59.583Z,971.24
2023-02-06T09:54:59.588Z,971.29
2023-02-06T09:55:59.561Z,971.21
2023-02-06T09:56:59.514Z,971.17
2023-02-06T09:57:59.518Z,971.18
2023-02-06T09:58:59.481Z,971.15
2023-02-06T09:59:59.457Z,971.17
2023-02-06T10:00:59.436Z,971.17
2023-02-06T10:01:59.435Z,971.2
2023-02-06T10:02:59.394Z,971.18
2023-02-06T10:03:59.425Z,971.2
2023-02-06T10:04:59.398Z,971.12
2023-02-06T10:05:59.332Z,971.13
2023-02-06T10:06:59.312Z,971.15
2023-02-06T10:07:59.304Z,971.07
2023-02-06T10:08:59.276Z,971.09
2023-02-06T10:09:59.250Z,971.09
2023-02-06T10:10:59.228Z,971.03
2023-02-06T10:11:59.215Z,971.05
2023-02-06T10:12:59.191Z,971.02
2023-02-06T10:13:59.202Z,971.03
2023-02-06T10:14:59.147Z,970.99
2023-02-06T10:15:59.136Z,970.95
2023-02-06T10:16:59.105Z,970.99
2023-02-06T10:17:59.088Z,971.03
2023-02-06T10:18:59.070Z,971.02
2023-02-06T10:19:59.046Z,971.02
2023-02-06T10:20:59.024Z,971.04
2023-02-06T10:21:59.004Z,971.06
2023-02-06T10:22:58.985Z,971.02
2023-02-06T10:23:58.967Z,970.99
2023-02-06T10:24:58.945Z,970.95
2023-02-06T10:25:58.927Z,970.91
2023-02-06T10:26:58.904Z,970.93
2023-02-06T10:27:58.943Z,970.95
2023-02-06T10:28:58.864Z,970.97
2023-02-06T10:29:58.871Z,970.99
2023-02-06T10:30:58.913Z,970.96
2023-02-06T10:31:58.849Z,970.96
2023-02-06T10:32:58.790Z,970.96
2023-02-06T10:33:58.765Z,971
2023-02-06T10:34:58.745Z,971
2023-02-06T10:35:58.725Z,970.96
2023-02-06T10:36:58.706Z,970.96
2023-02-06T10:37:58.685Z,970.98
2023-02-06T10:38:58.677Z,970.94
2023-02-06T10:39:58.652Z,970.87
2023-02-06T10:40:58.625Z,970.87
2023-02-06T10:41:58.605Z,970.87
2023-02-06T10:42:58.586Z,970.82
2023-02-06T10:43:58.672Z,970.8
2023-02-06T10:45:09.746Z,970.81
2023-02-06T10:45:58.552Z,970.86
2023-02-06T10:46:58.550Z,970.93
2023-02-06T10:47:58.485Z,970.94
2023-02-06T10:48:58.491Z,970.98
2023-02-06T10:49:58.443Z,970.93
2023-02-06T10:50:58.426Z,970.88
2023-02-06T10:51:58.427Z,970.82
2023-02-06T10:52:58.385Z,970.8
2023-02-06T10:53:58.360Z,970.8
2023-02-06T10:54:58.344Z,970.77
2023-02-06T10:55:58.320Z,970.74
2023-02-06T10:56:58.304Z,970.72
2023-02-06T10:57:58.284Z,970.69
2023-02-06T10:58:58.267Z,970.7
2023-02-06T10:59:58.280Z,970.69
2023-02-06T11:00:58.260Z,970.66
2023-02-06T11:02:00.444Z,970.6
2023-02-06T11:03:06.990Z,970.6
2023-02-06T11:03:58.164Z,970.62
2023-02-06T11:04:58.140Z,970.63
2023-02-06T11:05:58.117Z,970.57
2023-02-06T11:06:58.098Z,970.62
2023-02-06T11:07:58.080Z,970.65
2023-02-06T11:08:58.064Z,970.67
2023-02-06T11:09:58.039Z,970.73
2023-02-06T11:10:58.017Z,970.68
2023-02-06T11:11:57.998Z,970.71
2023-02-06T11:12:57.977Z,970.65
2023-02-06T11:13:57.956Z,970.72
2023-02-06T11:14:57.939Z,970.67
2023-02-06T11:15:57.973Z,970.65
2023-02-06T11:16:57.895Z,970.65
2023-02-06T11:17:57.930Z,970.68
2023-02-06T11:18:57.857Z,970.73
2023-02-06T11:19:57.834Z,970.71
2023-02-06T11:20:57.826Z,970.71
2023-02-06T11:21:57.791Z,970.75
2023-02-06T11:22:57.780Z,970.77
2023-02-06T11:23:57.751Z,970.83
2023-02-06T11:24:57.736Z,970.79
2023-02-06T11:25:57.727Z,970.73
2023-02-06T11:26:57.695Z,970.74
2023-02-06T11:27:57.737Z,970.73
2023-02-06T11:28:57.655Z,970.7
2023-02-06T11:29:57.634Z,970.65
2023-02-06T11:30:57.663Z,970.57
2023-02-06T11:31:57.623Z,970.59
2023-02-06T11:33:04.238Z,970.59
2023-02-06T11:33:57.578Z,970.55
2023-02-06T11:34:57.527Z,970.54
2023-02-06T11:35:57.510Z,970.52
2023-02-06T11:36:57.490Z,970.53
2023-02-06T11:37:57.486Z,970.55
2023-02-06T11:38:57.447Z,970.56
2023-02-06T11:39:57.427Z,970.53
2023-02-06T11:40:57.407Z,970.51
2023-02-06T11:41:57.385Z,970.52
2023-02-06T11:42:57.366Z,970.5
2023-02-06T11:43:57.344Z,970.46
2023-02-06T11:44:57.323Z,970.42
2023-02-06T11:45:57.328Z,970.45
2023-02-06T11:46:57.282Z,970.4
2023-02-06T11:47:57.261Z,970.43
2023-02-06T11:48:57.240Z,970.42
2023-02-06T11:49:57.261Z,970.43
2023-02-06T11:50:57.197Z,970.41
2023-02-06T11:51:57.183Z,970.42
2023-02-06T11:52:57.157Z,970.4
2023-02-06T11:53:57.144Z,970.42
2023-02-06T11:54:57.118Z,970.45
2023-02-06T11:55:57.099Z,970.48
2023-02-06T11:56:57.079Z,970.52
2023-02-06T11:57:57.057Z,970.49
2023-02-06T11:58:57.036Z,970.51
2023-02-06T11:59:57.017Z,970.52
2023-02-06T12:00:57.000Z,970.5
2023-02-06T12:01:56.986Z,970.49
2023-02-06T12:02:56.955Z,970.53
2023-02-06T12:03:56.933Z,970.52
2023-02-06T12:04:56.914Z,970.55
2023-02-06T12:05:59.002Z,970.52
2023-02-06T12:06:56.872Z,970.5
2023-02-06T12:07:56.851Z,970.52
2023-02-06T12:08:56.836Z,970.47
2023-02-06T12:09:56.810Z,970.49
2023-02-06T12:10:56.796Z,970.54
2023-02-06T12:11:56.769Z,970.51
2023-02-06T12:12:56.750Z,970.46
2023-02-06T12:13:56.729Z,970.5
2023-02-06T12:14:56.705Z,970.49
2023-02-06T12:15:56.688Z,970.5
2023-02-06T12:16:56.719Z,970.47
2023-02-06T12:17:56.654Z,970.43
2023-02-06T12:18:56.627Z,970.44
2023-02-06T12:19:56.610Z,970.41
2023-02-06T12:20:56.583Z,970.38
2023-02-06T12:21:56.613Z,970.37
2023-02-06T12:22:56.563Z,970.39
2023-02-06T12:23:56.521Z,970.32
2023-02-06T12:24:56.512Z,970.39
2023-02-06T12:25:56.483Z,970.41
2023-02-06T12:26:56.468Z,970.39
2023-02-06T12:27:56.463Z,970.42
2023-02-06T12:28:56.423Z,970.45
2023-02-06T12:29:56.408Z,970.3
2023-02-06T12:30:56.432Z,970.28
2023-02-06T12:31:56.484Z,970.32
2023-02-06T12:32:56.332Z,970.35
2023-02-06T12:33:56.314Z,970.35
2023-02-06T12:34:56.306Z,970.34
2023-02-06T12:35:56.270Z,970.38
2023-02-06T12:36:56.249Z,970.45
2023-02-06T12:37:56.251Z,970.4
2023-02-06T12:38:56.207Z,970.45
2023-02-06T12:39:56.183Z,970.47
2023-02-06T12:40:56.164Z,970.41
2023-02-06T12:41:56.144Z,970.36
2023-02-06T12:42:56.124Z,970.36
2023-02-06T12:43:56.114Z,970.35
2023-02-06T12:44:56.090Z,970.35
2023-02-06T12:45:56.061Z,970.39
2023-02-06T12:46:56.042Z,970.36
2023-02-06T12:47:56.016Z,970.4